Time;durP1;ratioP1;P1;durP2;ratioP2;P2;SDS_P1;SDS_P2;PMS_P1;PMS_P2;Temp;Humidity;BMP_temperature;BMP_pressure;BME280_temperature;BME280_humidity;BME280_pressure;Samples;Min_cycle;Max_cycle;Signal;HPM_P1;HPM_P2
2023/09/01 00:01:08;;;;;;;3.90;3.70;;;;;;;;;;5031473;28;20250;-67
2023/09/01 00:03:34;;;;;;;2.97;2.78;;;;;;;;;;5031750;28;20224;-67
2023/09/01 00:06:02;;;;;;;4.53;3.42;;;;;;;;;;5031651;28;20200;-66
2023/09/01 00:08:29;;;;;;;6.15;3.20;;;;;;;;;;5031151;28;20211;-66
2023/09/01 00:10:56;;;;;;;3.40;3.17;;;;;;;;;;5032020;28;20289;-65
2023/09/01 00:13:23;;;;;;;3.58;3.28;;;;;;;;;;5031024;28;20315;-66
2023/09/01 00:15:49;;;;;;;3.90;3.50;;;;;;;;;;5031754;28;20239;-65
2023/09/01 00:18:16;;;;;;;3.55;3.03;;;;;;;;;;5031363;28;20690;-66
2023/09/01 00:20:42;;;;;;;4.93;3.28;;;;;;;;;;5041026;28;20203;-64
2023/09/01 00:23:09;;;;;;;6.35;2.85;;;;;;;;;;5031370;28;20200;-66
2023/09/01 00:25:35;;;;;;;4.00;3.15;;;;;;;;;;5030523;28;20266;-66
2023/09/01 00:28:03;;;;;;;5.00;2.90;;;;;;;;;;5031181;28;20211;-65
2023/09/01 00:30:30;;;;;;;4.18;3.10;;;;;;;;;;5029592;28;20694;-67
2023/09/01 00:32:56;;;;;;;5.72;2.83;;;;;;;;;;5030416;28;20219;-65
2023/09/01 00:35:23;;;;;;;3.72;3.40;;;;;;;;;;5022309;28;20203;-65
2023/09/01 00:37:51;;;;;;;5.05;4.22;;;;;;;;;;5028574;28;20207;-65
2023/09/01 00:40:17;;;;;;;6.65;6.10;;;;;;;;;;5028598;28;20211;-65
2023/09/01 00:42:44;;;;;;;4.32;3.92;;;;;;;;;;5027383;28;20195;-65
2023/09/01 00:45:12;;;;;;;4.43;3.65;;;;;;;;;;5029218;28;20706;-65
2023/09/01 00:47:38;;;;;;;4.65;3.38;;;;;;;;;;5028123;28;20231;-65
2023/09/01 00:50:07;;;;;;;3.67;3.30;;;;;;;;;;5028654;28;20207;-65
2023/09/01 00:52:34;;;;;;;5.25;3.72;;;;;;;;;;5027837;28;20595;-65
2023/09/01 00:55:01;;;;;;;8.88;3.30;;;;;;;;;;5027371;28;20203;-65
2023/09/01 00:57:27;;;;;;;3.70;3.40;;;;;;;;;;5027360;28;20250;-65
2023/09/01 00:59:54;;;;;;;3.83;3.28;;;;;;;;;;5028200;28;20820;-65
2023/09/01 01:02:21;;;;;;;4.32;3.42;;;;;;;;;;5028979;28;20203;-64
2023/09/01 01:04:48;;;;;;;5.70;3.00;;;;;;;;;;5028563;28;20204;-65
2023/09/01 01:07:16;;;;;;;4.43;3.28;;;;;;;;;;5028397;28;20200;-65
2023/09/01 01:09:50;;;;;;;4.13;3.47;;;;;;;;;;5029899;28;20207;-64
2023/09/01 01:12:21;;;;;;;3.70;3.40;;;;;;;;;;5030475;28;20286;-65
2023/09/01 01:14:48;;;;;;;3.45;3.15;;;;;;;;;;5030132;28;20223;-65
2023/09/01 01:17:18;;;;;;;4.32;3.97;;;;;;;;;;5030604;28;20739;-65
2023/09/01 01:19:48;;;;;;;6.57;3.00;;;;;;;;;;5029615;28;20204;-65
2023/09/01 01:22:16;;;;;;;4.07;3.63;;;;;;;;;;5030514;28;20291;-65
2023/09/01 01:24:44;;;;;;;3.58;3.15;;;;;;;;;;5029920;28;20192;-65
2023/09/01 01:27:10;;;;;;;6.15;3.28;;;;;;;;;;5030583;28;20235;-65
2023/09/01 01:29:37;;;;;;;6.63;3.83;;;;;;;;;;5030020;28;20294;-65
2023/09/01 01:32:04;;;;;;;4.40;3.40;;;;;;;;;;5030346;28;20206;-65
2023/09/01 01:34:36;;;;;;;3.78;3.47;;;;;;;;;;5029618;28;20224;-65
2023/09/01 01:37:06;;;;;;;7.13;3.40;;;;;;;;;;5030102;28;20262;-65
2023/09/01 01:39:33;;;;;;;3.70;3.40;;;;;;;;;;5029850;28;20219;-64
2023/09/01 01:42:03;;;;;;;4.25;3.42;;;;;;;;;;5030277;28;20243;-64
2023/09/01 01:44:32;;;;;;;2.70;2.30;;;;;;;;;;5030053;28;20227;-65
2023/09/01 01:46:58;;;;;;;3.88;3.50;;;;;;;;;;5029709;28;20264;-65
2023/09/01 01:49:25;;;;;;;5.03;3.25;;;;;;;;;;5029957;28;20297;-65
2023/09/01 01:51:51;;;;;;;7.60;3.50;;;;;;;;;;5029907;28;20211;-65
2023/09/01 01:54:17;;;;;;;5.28;3.40;;;;;;;;;;5032915;28;20313;-64
2023/09/01 01:56:44;;;;;;;4.45;3.70;;;;;;;;;;5036441;28;20234;-63
2023/09/01 01:59:12;;;;;;;4.10;3.33;;;;;;;;;;5036503;28;20261;-65
2023/09/01 02:01:38;;;;;;;7.45;3.83;;;;;;;;;;5036265;28;20251;-65
2023/09/01 02:04:05;;;;;;;6.10;3.90;;;;;;;;;;5036668;28;20277;-65
2023/09/01 02:06:32;;;;;;;4.85;3.35;;;;;;;;;;5035972;28;20769;-65
2023/09/01 02:08:58;;;;;;;3.55;3.33;;;;;;;;;;5024143;28;20712;-65
2023/09/01 02:11:24;;;;;;;7.75;3.45;;;;;;;;;;5035815;28;20568;-65
2023/09/01 02:13:51;;;;;;;5.65;3.75;;;;;;;;;;5036462;28;20227;-65
2023/09/01 02:16:19;;;;;;;3.53;3.10;;;;;;;;;;5036320;28;20215;-66
2023/09/01 02:18:45;;;;;;;4.18;3.25;;;;;;;;;;5036238;28;20308;-65
2023/09/01 02:21:18;;;;;;;3.22;2.85;;;;;;;;;;5036065;28;20249;-65
2023/09/01 02:23:44;;;;;;;7.43;3.15;;;;;;;;;;5035816;28;20677;-65
2023/09/01 02:26:16;;;;;;;3.97;3.58;;;;;;;;;;5036141;28;20246;-64
2023/09/01 02:28:43;;;;;;;3.67;2.92;;;;;;;;;;5036145;28;20253;-65
2023/09/01 02:31:10;;;;;;;6.50;3.35;;;;;;;;;;5035915;28;20242;-65
2023/09/01 02:33:38;;;;;;;7.63;3.88;;;;;;;;;;5035779;28;20223;-65
2023/09/01 02:36:19;;;;;;;4.53;3.22;;;;;;;;;;5036228;28;20247;-65
2023/09/01 02:38:45;;;;;;;7.03;3.90;;;;;;;;;;5034145;28;20199;-66
2023/09/01 02:41:12;;;;;;;3.42;3.13;;;;;;;;;;5034298;28;20265;-65
2023/09/01 02:43:38;;;;;;;7.43;3.80;;;;;;;;;;5034538;28;20223;-66
2023/09/01 02:46:05;;;;;;;7.28;3.70;;;;;;;;;;5033999;28;20644;-64
2023/09/01 02:48:31;;;;;;;3.90;3.53;;;;;;;;;;5033692;28;20698;-65
2023/09/01 02:50:59;;;;;;;11.15;3.92;;;;;;;;;;5034285;28;20207;-65
2023/09/01 02:53:26;;;;;;;7.88;3.28;;;;;;;;;;5033866;28;20632;-65
2023/09/01 02:55:52;;;;;;;5.03;3.33;;;;;;;;;;5034287;28;20588;-65
2023/09/01 02:58:18;;;;;;;6.70;3.50;;;;;;;;;;5034474;28;20611;-65
2023/09/01 03:00:46;;;;;;;6.45;3.85;;;;;;;;;;5035611;28;20208;-65
2023/09/01 03:03:12;;;;;;;3.90;3.45;;;;;;;;;;5036465;28;20227;-65
2023/09/01 03:05:39;;;;;;;6.95;4.40;;;;;;;;;;5034348;28;20204;-65
2023/09/01 03:08:07;;;;;;;5.60;3.88;;;;;;;;;;5032909;28;20199;-65
2023/09/01 03:10:33;;;;;;;7.53;4.03;;;;;;;;;;5032999;28;20203;-65
2023/09/01 03:13:00;;;;;;;3.92;3.55;;;;;;;;;;5032723;28;20222;-66
2023/09/01 03:15:26;;;;;;;3.08;2.78;;;;;;;;;;5032937;28;20673;-64
2023/09/01 03:17:53;;;;;;;4.20;3.80;;;;;;;;;;5033093;28;20277;-65
2023/09/01 03:20:19;;;;;;;9.38;3.65;;;;;;;;;;5032742;28;20203;-64
2023/09/01 03:22:45;;;;;;;4.07;3.78;;;;;;;;;;5032537;28;20246;-66
2023/09/01 03:25:13;;;;;;;4.10;3.13;;;;;;;;;;5032781;28;20739;-65
2023/09/01 03:27:40;;;;;;;3.88;3.45;;;;;;;;;;5032595;28;20627;-65
2023/09/01 03:30:07;;;;;;;7.78;4.25;;;;;;;;;;5032947;28;20203;-66
2023/09/01 03:32:34;;;;;;;9.00;5.03;;;;;;;;;;5033269;28;20199;-65
2023/09/01 03:35:00;;;;;;;13.07;4.82;;;;;;;;;;5032404;28;20251;-66
2023/09/01 03:37:27;;;;;;;8.88;4.45;;;;;;;;;;5031967;28;20204;-64
2023/09/01 03:39:53;;;;;;;7.30;4.03;;;;;;;;;;5032280;28;20723;-65
2023/09/01 03:42:21;;;;;;;13.38;4.43;;;;;;;;;;5032393;28;20231;-65
2023/09/01 03:44:47;;;;;;;10.02;5.03;;;;;;;;;;5032458;28;20223;-65
2023/09/01 03:47:14;;;;;;;12.75;3.92;;;;;;;;;;5031782;28;20702;-65
2023/09/01 03:49:41;;;;;;;11.27;4.80;;;;;;;;;;5032136;28;20211;-64
2023/09/01 03:52:07;;;;;;;8.07;4.15;;;;;;;;;;5031995;28;20651;-65
2023/09/01 03:54:34;;;;;;;7.80;3.97;;;;;;;;;;5032298;28;20223;-64
2023/09/01 03:57:00;;;;;;;6.15;4.05;;;;;;;;;;5031902;28;20207;-64
2023/09/01 03:59:28;;;;;;;6.20;5.00;;;;;;;;;;5032043;28;20277;-64
2023/09/01 04:01:55;;;;;;;8.95;4.38;;;;;;;;;;5031831;28;20192;-65
2023/09/01 04:04:21;;;;;;;4.10;3.70;;;;;;;;;;5031591;28;20200;-64
2023/09/01 04:06:47;;;;;;;6.50;3.55;;;;;;;;;;5031853;28;20223;-64
2023/09/01 04:09:14;;;;;;;6.53;3.78;;;;;;;;;;5031698;28;20244;-65
2023/09/01 04:11:40;;;;;;;4.22;3.60;;;;;;;;;;5031072;28;20689;-65
2023/09/01 04:14:09;;;;;;;6.07;3.05;;;;;;;;;;5031914;28;20305;-64
2023/09/01 04:16:36;;;;;;;11.55;3.65;;;;;;;;;;5031024;28;20203;-65
2023/09/01 04:19:03;;;;;;;14.13;6.45;;;;;;;;;;5031065;28;20207;-64
2023/09/01 04:21:30;;;;;;;14.00;8.32;;;;;;;;;;5031383;28;20644;-64
2023/09/01 04:23:56;;;;;;;9.43;6.60;;;;;;;;;;5031492;28;21264;-64
2023/09/01 04:26:23;;;;;;;10.43;5.28;;;;;;;;;;5026599;28;20622;-64
2023/09/01 04:28:49;;;;;;;7.07;4.63;;;;;;;;;;5031241;28;20262;-65
2023/09/01 04:31:17;;;;;;;39.22;23.80;;;;;;;23.26;0.00;45105.16;5031171;28;20612;-65
2023/09/01 04:33:45;;;;;;;20.77;11.52;;;;;;;;;;5030837;28;20258;-64
2023/09/01 04:36:12;;;;;;;11.27;6.70;;;;;;;;;;5029693;28;20227;-65
2023/09/01 04:38:38;;;;;;;7.30;5.53;;;;;;;;;;5029076;28;20713;-64
2023/09/01 04:41:04;;;;;;;8.80;5.10;;;;;;;;;;5029046;28;20318;-64
2023/09/01 04:43:31;;;;;;;7.05;4.57;;;;;;;;;;5029053;28;20701;-64
2023/09/01 04:45:58;;;;;;;15.70;10.43;;;;;;;;;;5028755;28;20231;-65
2023/09/01 04:48:26;;;;;;;19.73;13.18;;;;;;;;;;5028609;28;20228;-66
2023/09/01 04:50:54;;;;;;;43.60;26.40;;;;;;;;;;5028640;28;20200;-64
2023/09/01 04:53:21;;;;;;;11.18;7.80;;;;;;;;;;5028684;28;20686;-64
2023/09/01 04:55:48;;;;;;;15.13;10.00;;;;;;;;;;5029644;28;20234;-65
2023/09/01 04:58:14;;;;;;;14.68;8.75;;;;;;;;;;5030215;28;20203;-65
2023/09/01 05:00:41;;;;;;;18.13;9.77;;;;;;;;;;5030841;28;20231;-65
2023/09/01 05:03:08;;;;;;;17.35;5.75;;;;;;;;;;5030155;28;20693;-64
2023/09/01 05:05:34;;;;;;;7.75;4.43;;;;;;;;;;5030598;28;20710;-65
2023/09/01 05:08:02;;;;;;;6.13;4.65;;;;;;;;;;5030392;28;20204;-64
2023/09/01 05:10:28;;;;;;;4.95;3.97;;;;;;;;;;5029402;28;20693;-64
2023/09/01 05:12:55;;;;;;;5.03;4.35;;;;;;;;;;5030549;28;20640;-64
2023/09/01 05:15:21;;;;;;;4.07;3.78;;;;;;;;;;5030475;28;20228;-64
2023/09/01 05:17:48;;;;;;;8.48;4.22;;;;;;;;;;5029920;28;20208;-65
2023/09/01 05:20:14;;;;;;;5.97;3.30;;;;;;;;;;5030636;28;20231;-65
2023/09/01 05:22:40;;;;;;;5.90;3.70;;;;;;;;;;5030233;28;20200;-65
2023/09/01 05:25:10;;;;;;;6.22;4.07;;;;;;;;;;5030237;28;20199;-65
2023/09/01 05:27:37;;;;;;;4.95;4.55;;;;;;;;;;5030140;28;20557;-65
2023/09/01 05:30:04;;;;;;;5.90;5.30;;;;;;;;;;5029939;28;20231;-66
2023/09/01 05:32:30;;;;;;;5.60;5.13;;;;;;;;;;5029359;28;20228;-66
2023/09/01 05:34:57;;;;;;;4.90;4.40;;;;;;;;;;5030223;28;20223;-64
2023/09/01 05:37:23;;;;;;;8.60;4.40;;;;;;;;;;5030049;28;20200;-65
2023/09/01 05:39:50;;;;;;;6.13;4.93;;;;;;;;;;5030287;28;20261;-64
2023/09/01 05:42:17;;;;;;;6.30;5.40;;;;;;;;;;5029353;28;20767;-64
2023/09/01 05:44:44;;;;;;;8.27;4.88;;;;;;;;;;5030308;28;20257;-63
2023/09/01 05:47:10;;;;;;;8.00;4.65;;;;;;;;;;5029588;28;20223;-64
2023/09/01 05:49:37;;;;;;;7.60;3.90;;;;;;;;;;5030167;28;20207;-64
2023/09/01 05:52:03;;;;;;;10.48;4.25;;;;;;;;;;5029972;28;20261;-65
2023/09/01 05:54:30;;;;;;;8.35;4.05;;;;;;;;;;5030008;28;20227;-65
2023/09/01 05:56:56;;;;;;;8.35;3.83;;;;;;;;;;5029562;28;20670;-65
2023/09/01 05:59:24;;;;;;;6.55;3.90;;;;;;;;;;5029655;28;20265;-64
2023/09/01 06:01:51;;;;;;;5.85;3.47;;;;;;;;;;5029524;28;20689;-65
2023/09/01 06:04:17;;;;;;;5.45;3.85;;;;;;;;;;5029893;28;20257;-64
2023/09/01 06:06:44;;;;;;;9.82;4.65;;;;;;;;;;5029437;28;20265;-65
2023/09/01 06:09:10;;;;;;;6.75;4.22;;;;;;;;;;5029894;28;20342;-64
2023/09/01 06:11:38;;;;;;;7.43;4.20;;;;;;;;;;5029741;28;20297;-65
2023/09/01 06:14:04;;;;;;;4.43;3.30;;;;;;;;;;5029889;28;20313;-65
2023/09/01 06:16:32;;;;;;;8.65;3.85;;;;;;;;;;5029313;28;20731;-65
2023/09/01 06:18:59;;;;;;;4.45;3.85;;;;;;;;;;5029531;28;20641;-66
2023/09/01 06:21:26;;;;;;;14.25;6.05;;;;;;;;;;5029825;28;20204;-66
2023/09/01 06:23:52;;;;;;;23.98;9.32;;;;;;;;;;5029532;28;20286;-66
2023/09/01 06:26:19;;;;;;;20.90;10.10;;;;;;;;;;5029724;28;20644;-66
2023/09/01 06:28:46;;;;;;;11.75;6.63;;;;;;;;;;5029161;28;20203;-66
2023/09/01 06:31:13;;;;;;;9.23;5.50;;;;;;;;;;5029534;28;20785;-66
2023/09/01 06:33:42;;;;;;;8.25;5.70;;;;;;;;;;5029953;28;20208;-66
2023/09/01 06:36:08;;;;;;;7.32;5.20;;;;;;;;;;5026701;28;20249;-66
2023/09/01 06:38:35;;;;;;;9.25;3.90;;;;;;;;;;5017864;28;20205;-66
2023/09/01 06:41:03;;;;;;;4.85;4.10;;;;;;;;;;5028329;28;20242;-66
2023/09/01 06:43:29;;;;;;;4.28;3.83;;;;;;;;;;5031645;28;20211;-66
2023/09/01 06:45:56;;;;;;;5.20;3.80;;;;;;;;;;5031819;28;20224;-66
2023/09/01 06:48:22;;;;;;;7.07;3.70;;;;;;;;;;5031805;28;20759;-66
2023/09/01 06:50:50;;;;;;;4.40;3.95;;;;;;;;;;5031536;28;20317;-67
2023/09/01 06:53:16;;;;;;;7.57;5.03;;;;;;;;;;5031831;28;20231;-67
2023/09/01 06:55:46;;;;;;;5.60;3.88;;;;;;;;;;5031583;28;20277;-67
2023/09/01 06:58:12;;;;;;;6.13;4.88;;;;;;;;;;5032450;28;20685;-67
2023/09/01 07:00:38;;;;;;;9.68;4.70;;;;;;;;;;5032041;28;20212;-67
2023/09/01 07:03:05;;;;;;;8.85;4.13;;;;;;;;;;5033296;28;20204;-67
2023/09/01 07:05:31;;;;;;;17.13;7.70;;;;;;;;;;5032339;28;20261;-67
2023/09/01 07:07:59;;;;;;;8.68;6.75;;;;;;;;;;5032920;28;20207;-67
2023/09/01 07:10:25;;;;;;;9.52;4.95;;;;;;;;;;5032723;28;20281;-66
2023/09/01 07:12:52;;;;;;;4.55;4.13;;;;;;;;;;5032546;28;20658;-66
2023/09/01 07:15:18;;;;;;;7.65;4.18;;;;;;;;;;5031060;28;20588;-66
2023/09/01 07:17:45;;;;;;;17.25;15.65;;;;;;;;;;5031938;28;20297;-66
2023/09/01 07:20:12;;;;;;;8.60;8.00;;;;;;;;;;5032570;28;20207;-66
2023/09/01 07:22:38;;;;;;;6.65;6.05;;;;;;;;;;5032422;28;20259;-66
2023/09/01 07:25:09;;;;;;;8.90;4.50;;;;;;;;;;5032421;28;20196;-65
2023/09/01 07:27:35;;;;;;;4.88;4.47;;;;;;;;;;5031931;28;20204;-65
2023/09/01 07:30:03;;;;;;;7.03;5.05;;;;;;;;;;5037492;28;20200;-65
2023/09/01 07:32:31;;;;;;;5.20;4.63;;;;;;;;;;5032150;28;20204;-65
2023/09/01 07:34:58;;;;;;;6.80;4.38;;;;;;;;;;5032431;28;20258;-66
2023/09/01 07:37:25;;;;;;;7.07;4.55;;;;;;;;;;5032381;28;20285;-66
2023/09/01 07:39:51;;;;;;;5.28;3.53;;;;;;;;;;5032324;28;20207;-66
2023/09/01 07:42:19;;;;;;;4.78;4.28;;;;;;;;;;5031141;28;20200;-66
2023/09/01 07:44:46;;;;;;;3.97;3.53;;;;;;;;;;5032092;28;20681;-66
2023/09/01 07:47:13;;;;;;;3.88;3.50;;;;;;;;;;5031038;28;20236;-66
2023/09/01 07:49:39;;;;;;;7.68;3.45;;;;;;;;;;5032115;28;20231;-65
2023/09/01 07:52:05;;;;;;;6.65;3.15;;;;;;;;;;5024159;28;20208;-66
2023/09/01 07:54:33;;;;;;;3.45;3.15;;;;;;;;;;5031511;28;20231;-67
2023/09/01 07:56:59;;;;;;;3.90;3.63;;;;;;;;;;5031041;28;20293;-67
2023/09/01 07:59:27;;;;;;;4.07;3.55;;;;;;;;;;5031230;28;20199;-66
2023/09/01 08:01:53;;;;;;;3.00;2.80;;;;;;;;;;5031433;28;20265;-66
2023/09/01 08:04:20;;;;;;;3.80;3.50;;;;;;;;;;5031836;28;20211;-65
2023/09/01 08:06:47;;;;;;;6.03;4.03;;;;;;;;;;5029863;28;20924;-66
2023/09/01 08:09:13;;;;;;;5.35;4.28;;;;;;;;;;5031412;28;20712;-66
2023/09/01 08:11:40;;;;;;;7.95;4.75;;;;;;;;;;5031544;28;20207;-66
2023/09/01 08:14:06;;;;;;;8.45;6.50;;;;;;;;;;5031982;28;20207;-66
2023/09/01 08:16:34;;;;;;;5.03;4.18;;;;;;;;;;5030993;28;20738;-66
2023/09/01 08:19:03;;;;;;;4.65;3.70;;;;;;;;;;5031298;28;20195;-65
2023/09/01 08:21:30;;;;;;;4.63;3.85;;;;;;;;;;5029118;28;20196;-65
2023/09/01 08:23:57;;;;;;;3.80;3.60;;;;;;;;;;5031025;28;20290;-65
2023/09/01 08:26:23;;;;;;;4.25;3.72;;;;;;;;;;5030802;28;20231;-66
2023/09/01 08:28:49;;;;;;;3.88;3.58;;;;;;;;;;5031350;28;20242;-66
2023/09/01 08:31:16;;;;;;;3.97;3.70;;;;;;;;;;5031036;28;20953;-65
2023/09/01 08:33:44;;;;;;;4.95;3.05;;;;;;;;;;5031028;28;20199;-66
2023/09/01 08:36:11;;;;;;;5.13;4.28;;;;;;;;;;5030838;28;20251;-66
2023/09/01 08:38:37;;;;;;;4.35;3.83;;;;;;;;;;5030823;28;20632;-66
2023/09/01 08:41:04;;;;;;;8.32;4.30;;;;;;;;;;5030507;28;20739;-67
2023/09/01 08:43:33;;;;;;;5.07;3.83;;;;;;;;;;5031303;28;20269;-67
2023/09/01 08:46:00;;;;;;;8.40;3.55;;;;;;;;;;5031064;28;20199;-66
2023/09/01 08:48:27;;;;;;;5.28;3.72;;;;;;;;;;5029847;28;20770;-66
2023/09/01 08:50:56;;;;;;;4.22;3.92;;;;;;;;;;5030027;28;20242;-66
2023/09/01 08:53:22;;;;;;;3.85;3.58;;;;;;;;;;5030465;28;20676;-65
2023/09/01 08:55:49;;;;;;;4.10;3.80;;;;;;;;;;5030400;28;20258;-66
2023/09/01 08:58:17;;;;;;;4.15;3.85;;;;;;;;;;5030274;28;20199;-66
2023/09/01 09:00:44;;;;;;;4.05;3.80;;;;;;;;;;5030893;28;20200;-66
2023/09/01 09:03:11;;;;;;;4.45;3.03;;;;;;;;;;5029864;28;20270;-65
2023/09/01 09:05:38;;;;;;;4.10;3.80;;;;;;;;;;5030364;28;20646;-66
2023/09/01 09:08:07;;;;;;;3.15;2.95;;;;;;;;;;5030604;28;20289;-67
2023/09/01 09:10:34;;;;;;;4.72;3.25;;;;;;;;;;5030049;28;20287;-64
2023/09/01 09:13:01;;;;;;;3.95;3.65;;;;;;;;;;5030194;28;20290;-65
2023/09/01 09:15:27;;;;;;;3.60;3.30;;;;;;;;;;5030457;28;20259;-65
2023/09/01 09:17:54;;;;;;;3.83;3.53;;;;;;;;;;5030123;28;20204;-65
2023/09/01 09:20:22;;;;;;;4.70;3.28;;;;;;;;;;5030124;28;20258;-65
2023/09/01 09:22:52;;;;;;;4.18;3.03;;;;;;;;;;5029614;28;20298;-65
2023/09/01 09:25:28;;;;;;;3.40;3.20;;;;;;;;;;5030134;28;20273;-65
2023/09/01 09:27:56;;;;;;;3.38;3.17;;;;;;;;;;5029728;28;20261;-66
2023/09/01 09:30:25;;;;;;;3.65;3.33;;;;;;;;;;5029926;28;20199;-65
2023/09/01 09:33:01;;;;;;;4.63;3.13;;;;;;;;;;5029598;28;20282;-66
2023/09/01 09:35:27;;;;;;;4.22;3.90;;;;;;;;;;5029690;28;20196;-65
2023/09/01 09:37:57;;;;;;;3.55;3.35;;;;;;;;;;5029104;28;20203;-66
2023/09/01 09:40:23;;;;;;;3.38;3.00;;;;;;;;;;5030162;28;20653;-66
2023/09/01 09:42:51;;;;;;;5.80;3.80;;;;;;;;;;5029309;28;20235;-66
2023/09/01 09:45:22;;;;;;;3.50;3.20;;;;;;;;;;5029703;28;20717;-65
2023/09/01 09:47:49;;;;;;;3.80;3.40;;;;;;;;;;5028391;28;20676;-64
2023/09/01 09:50:17;;;;;;;4.45;3.63;;;;;;;;;;5028919;28;20315;-63
2023/09/01 09:52:46;;;;;;;3.75;3.45;;;;;;;;;;5028787;28;20271;-64
2023/09/01 09:55:14;;;;;;;4.68;4.03;;;;;;;;;;5029649;28;20635;-68
2023/09/01 09:57:41;;;;;;;15.20;12.60;;;;;;;;;;5029145;28;20246;-66
2023/09/01 10:00:10;;;;;;;39.72;27.33;;;;;;;;;;5026639;28;20243;-66
2023/09/01 10:02:39;;;;;;;11.13;10.00;;;;;;;;;;5027476;28;20207;-66
2023/09/01 10:05:07;;;;;;;12.82;8.60;;;;;;;;;;5027117;28;20700;-65
2023/09/01 10:07:34;;;;;;;5.05;4.68;;;;;;;;;;5028118;28;20279;-67
2023/09/01 10:10:00;;;;;;;8.95;8.25;;;;;;;;;;5027288;28;20297;-68
2023/09/01 10:12:28;;;;;;;5.50;3.85;;;;;;;;;;5029543;28;20196;-67
2023/09/01 10:14:55;;;;;;;4.07;3.40;;;;;;;;;;5029923;28;20187;-67
2023/09/01 10:17:24;;;;;;;4.10;3.70;;;;;;;;;;5033417;28;20223;-66
2023/09/01 10:19:50;;;;;;;6.68;4.80;;;;;;;;;;5033106;28;20227;-67
2023/09/01 10:22:17;;;;;;;4.78;4.30;;;;;;;;;;5034011;28;20208;-66
2023/09/01 10:24:59;;;;;;;6.50;5.72;;;;;;;;;;5033544;28;20261;-67
2023/09/01 10:27:25;;;;;;;9.65;8.43;;;;;;;;;;5032790;28;20261;-66
2023/09/01 10:29:53;;;;;;;6.85;6.25;;;;;;;;;;5032112;28;20670;-66
2023/09/01 10:32:20;;;;;;;5.50;5.00;;;;;;;;;;5030693;28;20204;-67
2023/09/01 10:34:56;;;;;;;4.88;4.20;;;;;;;;;;5029321;28;20800;-66
2023/09/01 10:37:27;;;;;;;6.18;5.03;;;;;;;;;;5030461;28;20219;-66
2023/09/01 10:39:53;;;;;;;7.80;4.82;;;;;;;;;;5030686;28;20210;-67
2023/09/01 10:42:38;;;;;;;11.65;5.45;;;;;;;;;;5030123;28;20235;-66
2023/09/01 10:45:08;;;;;;;5.65;4.75;;;;;;;;;;5030869;28;20230;-67
2023/09/01 10:47:51;;;;;;;4.88;3.78;;;;;;;;;;5030679;28;20289;-65
2023/09/01 10:50:19;;;;;;;2.97;2.83;;;;;;;;;;5014088;28;20203;-67
2023/09/01 10:53:06;;;;;;;8.85;3.45;;;;;;;;;;5011548;28;20238;-67
2023/09/01 10:55:34;;;;;;;4.07;3.70;;;;;;;;;;5017134;28;20234;-67
2023/09/01 10:58:08;;;;;;;4.03;3.42;;;;;;;;;;5015125;28;20666;-67
2023/09/01 11:00:35;;;;;;;3.80;3.50;;;;;;;;;;5011443;28;20691;-67
2023/09/01 11:03:20;;;;;;;3.55;3.25;;;;;;;;;;5009551;28;20263;-67
2023/09/01 11:05:54;;;;;;;6.57;3.55;;;;;;;;;;5010812;28;20212;-67
2023/09/01 11:08:21;;;;;;;4.90;4.50;;;;;;;;;;5021577;28;20203;-68
2023/09/01 11:10:47;;;;;;;3.42;3.22;;;;;;;;;;5018470;28;20212;-67
2023/09/01 11:13:14;;;;;;;4.60;4.20;;;;;;;;;;5015286;28;20208;-67
2023/09/01 11:15:45;;;;;;;4.00;3.70;;;;;;;;;;5013695;28;20289;-68
2023/09/01 11:18:18;;;;;;;4.10;3.25;;;;;;;;;;5018910;28;20422;-67
2023/09/01 11:20:45;;;;;;;3.45;3.25;;;;;;;;;;5018766;28;20678;-67
2023/09/01 11:23:13;;;;;;;4.60;3.42;;;;;;;;;;5016079;28;20319;-67
2023/09/01 11:25:40;;;;;;;3.47;3.28;;;;;;;;;;5012373;28;20710;-67
2023/09/01 11:28:11;;;;;;;2.95;2.58;;;;;;;;;;5014974;28;20311;-67
2023/09/01 11:30:38;;;;;;;3.40;3.20;;;;;;;;;;5011776;28;20632;-67
2023/09/01 11:33:11;;;;;;;4.90;3.20;;;;;;;;;;5011237;28;20212;-67
2023/09/01 11:35:37;;;;;;;4.28;3.95;;;;;;;;;;5010109;28;20200;-67
2023/09/01 11:38:04;;;;;;;4.20;3.20;;;;;;;;;;5019183;28;20800;-67
2023/09/01 11:40:33;;;;;;;3.20;2.97;;;;;;;;;;5010675;28;20291;-67
2023/09/01 11:42:59;;;;;;;4.47;3.30;;;;;;;;;;5017466;28;20291;-67
2023/09/01 11:45:26;;;;;;;3.50;3.17;;;;;;;;;;5016257;28;20212;-67
2023/09/01 11:47:53;;;;;;;5.25;3.17;;;;;;;;;;5012502;28;20294;-67
2023/09/01 11:50:19;;;;;;;3.33;3.10;;;;;;;;;;5012832;28;20208;-67
2023/09/01 11:52:56;;;;;;;3.45;3.08;;;;;;;;;;5012387;28;20298;-67
2023/09/01 11:55:29;;;;;;;7.13;5.70;;;;;;;;;;5013054;28;20215;-67
2023/09/01 11:57:57;;;;;;;12.43;4.72;;;;;;;;;;5017961;28;20287;-67
2023/09/01 12:00:31;;;;;;;3.47;3.25;;;;;;;;;;5016913;28;20737;-67
2023/09/01 12:02:58;;;;;;;4.60;4.20;;;;;;;;;;5011515;28;20251;-67
2023/09/01 12:05:28;;;;;;;9.18;4.18;;;;;;;;;;5013244;28;20669;-66
2023/09/01 12:07:55;;;;;;;4.05;3.15;;;;;;;;;;5016264;28;20303;-66
2023/09/01 12:10:22;;;;;;;7.28;3.95;;;;;;;;;;5015321;28;20208;-67
2023/09/01 12:12:48;;;;;;;2.92;2.72;;;;;;;;;;5008438;28;20627;-67
2023/09/01 12:15:16;;;;;;;5.18;3.97;;;;;;;;;;5012226;28;20231;-67
2023/09/01 12:17:43;;;;;;;6.10;3.10;;;;;;;;;;5012525;28;20255;-67
2023/09/01 12:20:09;;;;;;;2.78;2.67;;;;;;;;;;5010805;28;20208;-67
2023/09/01 12:22:36;;;;;;;3.45;3.15;;;;;;;;;;5012496;28;20259;-67
2023/09/01 12:25:02;;;;;;;3.47;3.35;;;;;;;;;;5011961;28;20266;-67
2023/09/01 12:27:30;;;;;;;3.65;3.35;;;;;;;;;;5021647;28;20579;-67
2023/09/01 12:29:57;;;;;;;3.47;3.10;;;;;;;;;;5013970;28;20681;-67
2023/09/01 12:32:27;;;;;;;3.42;3.15;;;;;;;;;;5011815;28;20223;-67
2023/09/01 12:34:53;;;;;;;3.42;3.15;;;;;;;;;;5011391;28;20253;-67
2023/09/01 12:37:20;;;;;;;3.17;2.97;;;;;;;;;;5017042;28;20232;-66
2023/09/01 12:39:46;;;;;;;3.70;3.50;;;;;;;;;;5013485;28;20224;-67
2023/09/01 12:42:13;;;;;;;3.40;3.03;;;;;;;;;;5009646;28;20343;-67
2023/09/01 12:44:39;;;;;;;2.80;2.70;;;;;;;;;;5017083;28;20799;-67
2023/09/01 12:47:05;;;;;;;3.42;3.10;;;;;;;;;;5012681;28;20236;-67
2023/09/01 12:49:33;;;;;;;3.28;3.10;;;;;;;;;;5010814;28;20290;-66
2023/09/01 12:52:00;;;;;;;3.10;2.83;;;;;;;;;;5019358;28;20208;-65
2023/09/01 12:54:26;;;;;;;8.85;3.13;;;;;;;;;;5014499;28;20694;-66
2023/09/01 12:56:53;;;;;;;3.10;2.90;;;;;;;;;;5020623;28;20313;-66
2023/09/01 12:59:19;;;;;;;3.28;2.90;;;;;;;;;;5018920;28;20289;-66
2023/09/01 13:01:45;;;;;;;4.85;2.97;;;;;;;;;;5010662;28;20584;-68
2023/09/01 13:04:12;;;;;;;3.20;2.90;;;;;;;;;;5009006;28;20211;-65
2023/09/01 13:06:40;;;;;;;4.28;3.97;;;;;;;;;;5009246;28;20289;-67
2023/09/01 13:09:07;;;;;;;4.03;3.53;;;;;;;;;;5016032;28;20208;-67
2023/09/01 13:11:33;;;;;;;3.42;3.00;;;;;;;;;;5015195;28;20430;-67
2023/09/01 13:14:00;;;;;;;3.20;3.00;;;;;;;;;;5013342;28;20204;-66
2023/09/01 13:16:30;;;;;;;3.47;3.17;;;;;;;;;;5009612;28;20208;-66
2023/09/01 13:18:57;;;;;;;3.70;3.50;;;;;;;;;;5011167;28;20302;-66
2023/09/01 13:21:23;;;;;;;3.13;2.92;;;;;;;;;;5012812;28;20597;-67
2023/09/01 13:23:52;;;;;;;3.95;3.53;;;;;;;;;;5018061;28;20593;-66
2023/09/01 13:26:19;;;;;;;4.20;3.70;;;;;;;;;;5014334;28;20214;-67
2023/09/01 13:28:45;;;;;;;5.05;3.83;;;;;;;;;;5011106;28;20300;-67
2023/09/01 13:31:11;;;;;;;3.75;3.25;;;;;;;;;;5012706;28;20747;-67
2023/09/01 13:37:47;;;;;;;7.15;4.55;;;;;;;29.22;32.94;95237.63;5084991;27;20570;-66
2023/09/01 13:40:13;;;;;;;4.28;3.85;;;;;;;29.27;32.08;95245.00;5101652;28;20197;-66
2023/09/01 13:42:40;;;;;;;3.55;3.35;;;;;;;29.26;32.30;95243.34;5079898;28;20298;-65
2023/09/01 13:45:07;;;;;;;4.55;4.15;;;;;;;;;;5092071;28;20229;-66
2023/09/01 13:47:34;;;;;;;7.15;3.90;;;;;;;;;;5080466;28;20230;-66
2023/09/01 13:50:00;;;;;;;4.20;3.90;;;;;;;29.38;nan;95236.84;5075831;28;20296;-66
2023/09/01 13:52:27;;;;;;;4.65;4.30;;;;;;;29.39;nan;95239.28;5081952;28;20283;-66
2023/09/01 13:54:55;;;;;;;4.03;3.70;;;;;;;;;;5080202;28;20209;-66
2023/09/01 13:57:21;;;;;;;4.00;3.72;;;;;;;;;;5079320;28;20225;-66
2023/09/01 13:59:48;;;;;;;4.38;3.97;;;;;;;29.26;nan;95232.88;5080619;28;20232;-66
2023/09/01 14:02:15;;;;;;;4.20;3.90;;;;;;;;;;5073287;28;20553;-67
2023/09/01 14:04:42;;;;;;;4.15;3.95;;;;;;;28.88;nan;95235.09;5078609;28;20201;-67
2023/09/01 14:07:08;;;;;;;4.72;4.32;;;;;;;28.72;nan;95242.84;5079061;28;20237;-67
2023/09/01 14:09:35;;;;;;;5.30;4.43;;;;;;;;;;5078849;28;20264;-66
2023/09/01 14:12:04;;;;;;;4.55;4.28;;;;;;;28.82;nan;95232.28;5095455;28;20255;-68
2023/09/01 14:14:31;;;;;;;4.40;4.05;;;;;;;28.90;nan;95233.16;5084101;28;20198;-67
2023/09/01 14:16:58;;;;;;;4.63;4.22;;;;;;;28.97;nan;95243.78;5078104;28;20715;-66
2023/09/01 14:19:24;;;;;;;4.28;3.88;;;;;;;28.74;nan;95238.28;5086684;28;20699;-66
2023/09/01 14:21:51;;;;;;;5.35;4.55;;;;;;;28.51;nan;95243.25;5079346;28;20240;-66
2023/09/01 14:24:18;;;;;;;5.30;4.88;;;;;;;28.37;nan;95241.22;5086736;28;20229;-66
2023/09/01 14:26:47;;;;;;;4.43;4.20;;;;;;;28.30;nan;95241.03;5078677;28;20718;-66
2023/09/01 14:29:15;;;;;;;4.40;4.10;;;;;;;28.08;nan;95252.78;5078688;28;20229;-66
2023/09/01 14:31:42;;;;;;;4.25;4.05;;;;;;;27.86;nan;95242.84;5080068;28;20233;-66
2023/09/01 14:34:09;;;;;;;5.25;4.85;;;;;;;27.68;nan;95250.72;5083778;28;20259;-66